createdAt,value
2023-04-13T00:01:17.668Z,8.57
2023-04-13T00:03:46.200Z,7.97
2023-04-13T00:06:13.849Z,8.20
2023-04-13T00:08:43.733Z,7.87
2023-04-13T00:11:13.090Z,7.67
2023-04-13T00:13:47.861Z,7.33
2023-04-13T00:16:16.902Z,7.30
2023-04-13T00:18:45.277Z,7.23
2023-04-13T00:21:12.788Z,7.67
2023-04-13T00:23:40.874Z,7.47
2023-04-13T00:26:08.395Z,8.20
2023-04-13T00:28:35.892Z,7.80
2023-04-13T00:31:03.490Z,8.17
2023-04-13T00:33:31.217Z,8.17
2023-04-13T00:35:58.721Z,7.83
2023-04-13T00:38:27.479Z,8.73
2023-04-13T00:40:56.254Z,9.17
2023-04-13T00:43:24.070Z,9.20
2023-04-13T00:45:52.304Z,8.37
2023-04-13T00:48:19.932Z,8.20
2023-04-13T00:50:47.567Z,8.40
2023-04-13T00:53:16.228Z,8.20
2023-04-13T00:55:44.145Z,7.33
2023-04-13T00:58:13.658Z,8.27
2023-04-13T01:00:43.481Z,8.33
2023-04-13T01:03:13.152Z,7.73
2023-04-13T01:05:56.801Z,8.03
2023-04-13T01:08:32.218Z,8.03
2023-04-13T01:11:12.991Z,8.70
2023-04-13T01:14:07.988Z,9.13
2023-04-13T01:16:55.494Z,8.47
2023-04-13T01:20:10.655Z,8.53
2023-04-13T01:23:09.737Z,8.70
2023-04-13T01:25:53.324Z,9.07
2023-04-13T01:28:22.660Z,9.90
2023-04-13T01:30:53.993Z,9.37
2023-04-13T01:33:22.597Z,9.83
2023-04-13T01:35:51.448Z,9.50
2023-04-13T01:38:24.815Z,9.70
2023-04-13T01:40:52.782Z,9.57
2023-04-13T01:43:21.782Z,9.60
2023-04-13T01:46:10.248Z,10.97
2023-04-13T01:48:52.508Z,10.30
2023-04-13T01:51:32.404Z,10.57
2023-04-13T01:54:14.080Z,10.83
2023-04-13T01:56:42.292Z,10.50
2023-04-13T01:59:10.832Z,11.17
2023-04-13T02:01:39.488Z,10.97
2023-04-13T02:04:07.945Z,10.47
2023-04-13T02:06:37.410Z,10.47
2023-04-13T02:09:07.039Z,9.93
2023-04-13T02:11:36.885Z,10.33
2023-04-13T02:14:05.043Z,11.37
2023-04-13T02:16:32.632Z,10.93
2023-04-13T02:19:00.391Z,10.70
2023-04-13T02:21:28.435Z,11.23
2023-04-13T02:23:56.003Z,10.50
2023-04-13T02:26:23.788Z,10.67
2023-04-13T02:28:52.626Z,10.87
2023-04-13T02:31:20.796Z,11.07
2023-04-13T02:33:48.443Z,11.73
2023-04-13T02:36:17.650Z,11.27
2023-04-13T02:38:45.751Z,12.50
2023-04-13T02:41:13.304Z,11.80
2023-04-13T02:43:40.897Z,11.43
2023-04-13T02:46:09.015Z,11.00
2023-04-13T02:48:36.849Z,11.40
2023-04-13T02:51:04.633Z,11.73
2023-04-13T02:53:32.122Z,11.43
2023-04-13T02:56:00.074Z,10.63
2023-04-13T02:58:31.671Z,11.30
2023-04-13T03:00:59.441Z,11.17
2023-04-13T03:03:27.112Z,12.00
2023-04-13T03:05:54.640Z,11.57
2023-04-13T03:08:22.191Z,12.40
2023-04-13T03:10:49.817Z,11.97
2023-04-13T03:13:17.437Z,13.93
2023-04-13T03:15:46.775Z,12.63
2023-04-13T03:18:14.457Z,12.43
2023-04-13T03:20:42.010Z,12.53
2023-04-13T03:23:09.992Z,12.73
2023-04-13T03:25:37.666Z,12.97
2023-04-13T03:28:05.670Z,13.07
2023-04-13T03:30:33.139Z,13.20
2023-04-13T03:33:00.766Z,12.73
2023-04-13T03:35:28.521Z,13.20
2023-04-13T03:37:56.236Z,14.53
2023-04-13T03:40:23.796Z,14.40
2023-04-13T03:42:51.444Z,15.03
2023-04-13T03:45:19.090Z,14.47
2023-04-13T03:47:46.943Z,13.30
2023-04-13T03:50:14.875Z,14.03
2023-04-13T03:52:42.366Z,13.10
2023-04-13T03:55:10.285Z,13.77
2023-04-13T03:57:37.843Z,14.27
2023-04-13T04:00:11.302Z,13.40
2023-04-13T04:02:39.155Z,14.30
2023-04-13T04:05:07.256Z,14.43
2023-04-13T04:07:34.786Z,13.97
2023-04-13T04:10:02.330Z,12.80
2023-04-13T04:12:30.307Z,13.13
2023-04-13T04:14:57.843Z,12.70
2023-04-13T04:17:25.629Z,13.87
2023-04-13T04:19:53.327Z,14.50
2023-04-13T04:22:20.830Z,13.93
2023-04-13T04:24:48.299Z,13.67
2023-04-13T04:27:15.829Z,13.93
2023-04-13T04:29:49.356Z,14.43
2023-04-13T04:32:18.755Z,13.73
2023-04-13T04:34:47.209Z,14.00
2023-04-13T04:37:20.548Z,13.70
2023-04-13T04:39:49.049Z,14.70
2023-04-13T04:42:18.976Z,14.37
2023-04-13T04:44:50.042Z,19.83
2023-04-13T04:47:18.851Z,21.33
2023-04-13T04:49:46.405Z,16.67
2023-04-13T04:52:14.912Z,15.77
2023-04-13T04:54:42.459Z,17.10
2023-04-13T04:57:10.782Z,15.67
2023-04-13T04:59:39.014Z,15.97
2023-04-13T05:02:08.331Z,15.77
2023-04-13T05:04:35.916Z,15.23
2023-04-13T05:07:03.500Z,14.40
2023-04-13T05:09:31.257Z,16.30
2023-04-13T05:11:58.866Z,14.77
2023-04-13T05:14:26.531Z,14.97
2023-04-13T05:16:54.078Z,14.73
2023-04-13T05:19:21.548Z,15.13
2023-04-13T05:21:49.172Z,15.77
2023-04-13T05:24:16.683Z,15.63
2023-04-13T05:26:44.157Z,23.73
2023-04-13T05:29:12.159Z,22.63
2023-04-13T05:31:39.782Z,20.00
2023-04-13T05:34:07.297Z,21.70
2023-04-13T05:36:34.795Z,21.33
2023-04-13T05:39:02.936Z,19.37
2023-04-13T05:41:30.583Z,27.60
2023-04-13T05:43:58.058Z,20.57
2023-04-13T05:46:26.304Z,20.00
2023-04-13T05:48:53.839Z,16.57
2023-04-13T05:51:21.751Z,16.90
2023-04-13T05:53:49.186Z,16.20
2023-04-13T05:56:16.874Z,15.93
2023-04-13T05:58:44.603Z,15.07
2023-04-13T06:01:12.441Z,14.80
2023-04-13T06:03:40.220Z,15.37
2023-04-13T06:06:08.897Z,15.63
2023-04-13T06:08:36.475Z,14.53
2023-04-13T06:11:04.058Z,15.67
2023-04-13T06:13:31.976Z,16.00
2023-04-13T06:15:59.965Z,17.40
2023-04-13T06:18:28.080Z,16.30
2023-04-13T06:20:57.325Z,16.23
2023-04-13T06:23:24.905Z,16.30
2023-04-13T06:25:52.527Z,18.30
2023-04-13T06:28:20.021Z,18.10
2023-04-13T06:30:47.646Z,16.43
2023-04-13T06:33:15.713Z,17.40
2023-04-13T06:35:43.255Z,18.23
2023-04-13T06:38:11.977Z,16.47
2023-04-13T06:40:39.833Z,16.23
2023-04-13T06:43:13.508Z,15.23
2023-04-13T06:45:48.562Z,14.50
2023-04-13T06:48:16.225Z,14.97
2023-04-13T06:50:44.863Z,14.73
2023-04-13T06:53:12.386Z,14.47
2023-04-13T06:55:39.877Z,14.57
2023-04-13T06:58:07.502Z,14.77
2023-04-13T07:00:35.038Z,16.33
2023-04-13T07:03:02.627Z,14.87
2023-04-13T07:05:30.758Z,14.57
2023-04-13T07:07:58.480Z,14.20
2023-04-13T07:10:26.025Z,14.23
2023-04-13T07:12:53.604Z,13.87
2023-04-13T07:15:21.392Z,13.83
2023-04-13T07:17:49.519Z,12.83
2023-04-13T07:20:17.835Z,13.63
2023-04-13T07:22:45.333Z,13.53
2023-04-13T07:25:12.833Z,14.43
2023-04-13T07:27:40.720Z,13.40
2023-04-13T07:30:09.163Z,13.27
2023-04-13T07:32:36.853Z,14.03
2023-04-13T07:35:05.051Z,14.17
2023-04-13T07:37:32.623Z,13.60
2023-04-13T07:40:00.707Z,13.93
2023-04-13T07:42:35.731Z,13.73
2023-04-13T07:45:07.647Z,13.70
2023-04-13T07:47:35.394Z,14.53
2023-04-13T07:50:06.022Z,13.80
2023-04-13T07:52:34.083Z,14.73
2023-04-13T07:55:06.900Z,14.27
2023-04-13T07:57:35.168Z,13.27
2023-04-13T08:00:06.755Z,13.33
2023-04-13T08:02:34.511Z,13.30
2023-04-13T08:05:02.499Z,12.77
2023-04-13T08:07:30.167Z,12.93
2023-04-13T08:09:57.681Z,12.30
2023-04-13T08:12:25.169Z,12.43
2023-04-13T08:14:53.267Z,11.90
2023-04-13T08:17:21.977Z,11.40
2023-04-13T08:19:49.568Z,11.23
2023-04-13T08:22:17.066Z,11.57
2023-04-13T08:24:46.024Z,12.57
2023-04-13T08:27:13.582Z,13.03
2023-04-13T08:29:41.240Z,14.13
2023-04-13T08:32:08.838Z,12.97
2023-04-13T08:34:36.972Z,13.00
2023-04-13T08:37:04.933Z,13.27
2023-04-13T08:39:32.545Z,12.97
2023-04-13T08:42:02.060Z,11.97
2023-04-13T08:44:31.626Z,12.57
2023-04-13T08:47:00.865Z,13.03
2023-04-13T08:49:29.486Z,10.77
2023-04-13T08:52:00.485Z,10.37
2023-04-13T08:54:29.188Z,11.03
2023-04-13T08:56:57.973Z,10.30
2023-04-13T08:59:29.313Z,11.23
2023-04-13T09:01:58.541Z,11.00
2023-04-13T09:04:32.802Z,10.40
2023-04-13T09:07:01.699Z,10.10
2023-04-13T09:09:29.958Z,9.47
2023-04-13T09:11:57.672Z,8.97
2023-04-13T09:14:26.005Z,9.67
2023-04-13T09:16:53.868Z,9.30
2023-04-13T09:19:32.899Z,8.23
2023-04-13T09:22:01.214Z,8.10
2023-04-13T09:24:41.137Z,7.90
2023-04-13T09:27:20.462Z,6.60
2023-04-13T09:29:55.720Z,7.27
2023-04-13T09:32:28.449Z,6.30
2023-04-13T09:35:01.206Z,6.30
2023-04-13T09:37:28.706Z,6.10
2023-04-13T09:39:56.283Z,6.50
2023-04-13T09:42:24.177Z,6.53
2023-04-13T09:44:58.428Z,6.13
2023-04-13T09:47:35.406Z,6.20
2023-04-13T09:50:04.782Z,6.40
2023-04-13T09:52:32.922Z,6.30
2023-04-13T09:55:00.601Z,6.50
2023-04-13T09:57:30.156Z,6.93
2023-04-13T10:00:01.990Z,6.40
2023-04-13T10:02:30.333Z,6.20
2023-04-13T10:04:58.477Z,5.93
2023-04-13T10:07:30.238Z,6.40
2023-04-13T10:09:57.720Z,6.10
2023-04-13T10:12:27.284Z,5.90
2023-04-13T10:15:27.334Z,6.50
2023-04-13T10:18:10.232Z,5.57
2023-04-13T10:20:38.091Z,5.60
2023-04-13T10:23:06.914Z,5.60
2023-04-13T10:25:36.808Z,5.47
2023-04-13T10:28:06.113Z,5.40
2023-04-13T10:30:33.786Z,5.50
2023-04-13T10:33:09.950Z,5.40
2023-04-13T10:35:39.467Z,4.97
2023-04-13T10:38:11.932Z,4.97
2023-04-13T10:40:45.129Z,4.90
2023-04-13T10:43:12.900Z,4.93
2023-04-13T10:45:40.498Z,6.20
2023-04-13T10:48:08.068Z,6.73
2023-04-13T10:50:35.968Z,6.93
2023-04-13T10:53:06.939Z,6.60
2023-04-13T10:55:36.125Z,7.23
2023-04-13T10:58:14.954Z,7.30
2023-04-13T11:00:47.208Z,7.27
2023-04-13T11:03:16.975Z,7.73
2023-04-13T11:05:47.694Z,7.90
2023-04-13T11:08:21.192Z,7.67
2023-04-13T11:10:54.273Z,8.53
2023-04-13T11:13:25.353Z,8.90
2023-04-13T11:16:04.369Z,8.40
2023-04-13T11:18:32.743Z,8.30
2023-04-13T11:21:01.210Z,7.23
2023-04-13T11:23:28.742Z,5.00
2023-04-13T11:26:00.072Z,4.63
2023-04-13T11:28:44.081Z,4.00
2023-04-13T11:31:12.141Z,3.73
2023-04-13T11:33:40.805Z,3.40
2023-04-13T11:36:12.146Z,2.20
2023-04-13T11:38:41.826Z,2.40
2023-04-13T11:41:15.811Z,2.10
2023-04-13T11:43:48.985Z,1.83
2023-04-13T11:46:25.776Z,1.83
2023-04-13T11:48:55.373Z,2.00
2023-04-13T11:51:23.252Z,2.30
2023-04-13T11:53:53.401Z,2.10
2023-04-13T11:56:21.453Z,2.40
2023-04-13T11:58:53.339Z,2.40
2023-04-13T12:01:26.976Z,2.10
2023-04-13T12:06:44.503Z,1.60
2023-04-13T12:09:16.696Z,2.10
2023-04-13T12:11:50.369Z,2.00
2023-04-13T12:19:27.232Z,1.90
2023-04-13T12:21:57.456Z,2.30
2023-04-13T12:24:39.694Z,1.80
2023-04-13T12:29:39.584Z,2.50
2023-04-13T12:32:15.302Z,1.90
2023-04-13T12:34:44.134Z,1.93
2023-04-13T12:37:12.417Z,2.10
2023-04-13T12:39:39.969Z,2.17
2023-04-13T12:42:07.478Z,2.20
2023-04-13T12:44:34.960Z,1.80
2023-04-13T12:47:02.881Z,1.90
2023-04-13T12:49:30.532Z,1.80
2023-04-13T12:51:58.171Z,1.90
2023-04-13T12:54:25.954Z,1.90
2023-04-13T12:56:53.506Z,1.80
2023-04-13T12:59:23.392Z,1.83
2023-04-13T13:01:51.392Z,1.60
2023-04-13T13:04:18.920Z,1.40
2023-04-13T13:06:46.635Z,1.40
2023-04-13T13:09:14.120Z,1.10
2023-04-13T13:11:41.620Z,1.17
2023-04-13T13:14:11.166Z,1.00
2023-04-13T13:16:39.148Z,0.90
2023-04-13T13:19:06.863Z,0.70
2023-04-13T13:21:34.632Z,1.00
2023-04-13T13:24:02.206Z,0.90
2023-04-13T13:26:36.690Z,1.00
2023-04-13T13:29:18.206Z,1.10
2023-04-13T13:31:46.081Z,1.20
2023-04-13T13:34:13.643Z,1.10
2023-04-13T13:36:41.230Z,1.10
2023-04-13T13:39:08.820Z,1.50
2023-04-13T13:41:36.393Z,2.50
2023-04-13T13:44:03.859Z,3.30
2023-04-13T13:46:31.325Z,2.70
2023-04-13T13:48:59.088Z,1.17
2023-04-13T13:51:28.447Z,1.60
2023-04-13T13:53:56.008Z,0.97
2023-04-13T13:56:23.571Z,2.27
2023-04-13T13:58:51.105Z,1.50
2023-04-13T14:01:18.827Z,1.17
2023-04-13T14:03:46.700Z,0.80
2023-04-13T14:06:14.247Z,0.90
2023-04-13T14:08:41.775Z,1.20
2023-04-13T14:11:11.632Z,1.20
2023-04-13T14:13:39.315Z,1.20
2023-04-13T14:16:07.550Z,1.10
2023-04-13T14:18:35.118Z,1.10
2023-04-13T14:21:02.884Z,0.80
2023-04-13T14:23:31.120Z,1.20
2023-04-13T14:25:58.641Z,1.10
2023-04-13T14:28:26.269Z,1.03
2023-04-13T14:30:53.740Z,1.20
2023-04-13T14:33:21.223Z,1.00
2023-04-13T14:35:48.837Z,1.20
2023-04-13T14:38:16.987Z,1.30
2023-04-13T14:40:44.529Z,1.13
2023-04-13T14:43:11.994Z,1.00
2023-04-13T14:45:39.452Z,2.30
2023-04-13T14:48:07.143Z,1.77
2023-04-13T14:50:38.313Z,1.40
2023-04-13T14:53:07.933Z,1.70
2023-04-13T14:55:35.544Z,2.17
2023-04-13T14:58:03.538Z,2.17
2023-04-13T15:00:40.408Z,2.90
2023-04-13T15:03:15.092Z,3.90
2023-04-13T15:05:46.457Z,2.90
2023-04-13T15:08:16.906Z,2.27
2023-04-13T15:10:44.559Z,1.67
2023-04-13T15:13:12.287Z,1.37
2023-04-13T15:15:41.192Z,1.27
2023-04-13T15:18:09.329Z,1.43
2023-04-13T15:20:36.869Z,1.50
2023-04-13T15:23:04.547Z,1.10
2023-04-13T15:25:32.075Z,1.30
2023-04-13T15:27:59.796Z,1.20
2023-04-13T15:30:30.172Z,1.20
2023-04-13T15:33:02.529Z,1.20
2023-04-13T15:35:31.730Z,1.30
2023-04-13T15:38:05.560Z,1.37
2023-04-13T15:40:34.835Z,1.30
2023-04-13T15:43:03.649Z,1.30
2023-04-13T15:45:32.138Z,1.43
2023-04-13T15:47:59.749Z,1.50
2023-04-13T15:50:27.632Z,1.40
2023-04-13T15:52:55.107Z,1.70
2023-04-13T15:55:22.744Z,2.07
2023-04-13T15:57:50.911Z,1.97
2023-04-13T16:00:18.882Z,3.43
2023-04-13T16:02:46.660Z,2.23
2023-04-13T16:05:14.347Z,2.23
2023-04-13T16:07:41.880Z,1.90
2023-04-13T16:10:16.717Z,2.20
2023-04-13T16:12:45.540Z,2.40
2023-04-13T16:15:13.392Z,3.40
2023-04-13T16:17:44.099Z,3.37
2023-04-13T16:20:14.854Z,3.00
2023-04-13T16:22:47.146Z,2.73
2023-04-13T16:25:15.759Z,2.83
2023-04-13T16:27:43.869Z,2.67
2023-04-13T16:30:17.626Z,2.70
2023-04-13T16:32:46.649Z,2.50
2023-04-13T16:35:14.591Z,3.13
2023-04-13T16:37:43.256Z,3.00
2023-04-13T16:40:11.819Z,3.10
2023-04-13T16:42:40.761Z,6.80
2023-04-13T16:45:12.971Z,3.73
2023-04-13T16:47:42.265Z,3.03
2023-04-13T16:50:11.421Z,3.00
2023-04-13T16:52:40.149Z,4.07
2023-04-13T16:55:11.232Z,3.90
2023-04-13T16:57:38.819Z,3.90
2023-04-13T17:00:09.592Z,3.43
2023-04-13T17:02:42.157Z,4.00
2023-04-13T17:05:11.787Z,3.57
2023-04-13T17:07:43.827Z,4.13
2023-04-13T17:10:14.485Z,4.10
2023-04-13T17:12:42.127Z,4.07
2023-04-13T17:15:10.620Z,4.10
2023-04-13T17:17:38.680Z,4.33
2023-04-13T17:20:07.447Z,3.87
2023-04-13T17:22:35.292Z,4.90
2023-04-13T17:25:02.871Z,8.07
2023-04-13T17:27:30.923Z,5.83
2023-04-13T17:29:58.499Z,6.23
2023-04-13T17:32:26.284Z,6.50
2023-04-13T17:34:53.759Z,5.60
2023-04-13T17:37:21.295Z,4.60
2023-04-13T17:39:50.875Z,4.60
2023-04-13T17:42:19.041Z,4.77
2023-04-13T17:44:46.604Z,3.40
2023-04-13T17:47:14.486Z,3.83
2023-04-13T17:49:42.098Z,3.40
2023-04-13T17:52:09.713Z,3.30
2023-04-13T17:54:37.951Z,3.33
2023-04-13T17:57:07.497Z,3.10
2023-04-13T17:59:35.035Z,3.40
2023-04-13T18:02:02.953Z,3.00
2023-04-13T18:04:32.739Z,3.10
2023-04-13T18:07:00.554Z,2.70
2023-04-13T18:09:28.391Z,2.60
2023-04-13T18:11:55.944Z,3.00
2023-04-13T18:14:23.397Z,2.90
2023-04-13T18:16:51.204Z,5.63
2023-04-13T18:19:18.688Z,4.83
2023-04-13T18:21:46.277Z,2.67
2023-04-13T18:24:13.744Z,2.80
2023-04-13T18:26:41.405Z,2.50
2023-04-13T18:29:09.749Z,4.43
2023-04-13T18:31:37.317Z,4.07
2023-04-13T18:34:07.368Z,3.00
2023-04-13T18:36:35.004Z,2.93
2023-04-13T18:39:03.809Z,3.17
2023-04-13T18:41:31.953Z,2.90
2023-04-13T18:44:00.243Z,3.13
2023-04-13T18:46:28.084Z,2.90
2023-04-13T18:48:55.636Z,2.87
2023-04-13T18:51:23.161Z,2.77
2023-04-13T18:53:50.712Z,3.20
2023-04-13T18:56:18.188Z,2.37
2023-04-13T18:58:45.628Z,2.83
2023-04-13T19:01:17.756Z,2.57
2023-04-13T19:03:46.318Z,3.10
2023-04-13T19:06:14.095Z,2.80
2023-04-13T19:08:43.434Z,2.80
2023-04-13T19:11:11.000Z,3.10
2023-04-13T19:13:38.506Z,2.97
2023-04-13T19:16:07.037Z,3.10
2023-04-13T19:18:35.280Z,2.90
2023-04-13T19:21:03.040Z,3.53
2023-04-13T19:23:30.560Z,3.27
2023-04-13T19:25:58.010Z,2.93
2023-04-13T19:28:27.228Z,3.17
2023-04-13T19:30:55.332Z,3.73
2023-04-13T19:33:22.787Z,3.53
2023-04-13T19:35:50.539Z,3.00
2023-04-13T19:38:18.184Z,3.00
2023-04-13T19:40:45.673Z,2.97
2023-04-13T19:43:13.212Z,3.07
2023-04-13T19:45:40.915Z,2.40
2023-04-13T19:48:08.530Z,2.43
2023-04-13T19:50:36.491Z,2.67
2023-04-13T19:53:04.143Z,3.23
2023-04-13T19:55:32.016Z,3.60
2023-04-13T19:57:59.552Z,3.37
2023-04-13T20:00:28.237Z,2.40
2023-04-13T20:03:03.310Z,2.47
2023-04-13T20:05:31.266Z,2.60
2023-04-13T20:07:59.399Z,2.87
2023-04-13T20:10:28.145Z,2.70
2023-04-13T20:12:55.613Z,2.70
2023-04-13T20:15:23.084Z,2.33
2023-04-13T20:17:51.554Z,2.60
2023-04-13T20:20:21.858Z,2.70
2023-04-13T20:22:51.320Z,2.77
2023-04-13T20:25:18.749Z,2.50
2023-04-13T20:27:46.242Z,2.97
2023-04-13T20:30:14.125Z,2.50
2023-04-13T20:32:41.782Z,2.67
2023-04-13T20:35:13.595Z,2.77
2023-04-13T20:37:41.763Z,2.60
2023-04-13T20:40:12.479Z,3.00
2023-04-13T20:42:42.136Z,2.33
2023-04-13T20:45:14.953Z,2.80
2023-04-13T20:47:59.610Z,2.47
2023-04-13T20:50:27.674Z,2.70
2023-04-13T20:52:57.023Z,2.20
2023-04-13T20:55:24.776Z,2.50
2023-04-13T20:57:52.568Z,4.00
2023-04-13T21:00:23.737Z,2.60
2023-04-13T21:02:53.388Z,2.80
2023-04-13T21:05:23.973Z,2.70
2023-04-13T21:07:51.998Z,3.13
2023-04-13T21:10:19.512Z,2.93
2023-04-13T21:12:47.256Z,2.70
2023-04-13T21:15:15.315Z,2.80
2023-04-13T21:17:42.854Z,2.60
2023-04-13T21:20:11.818Z,3.13
2023-04-13T21:22:39.410Z,2.57
2023-04-13T21:25:07.376Z,2.60
2023-04-13T21:27:36.363Z,2.00
2023-04-13T21:30:04.210Z,1.77
2023-04-13T21:32:31.792Z,1.90
2023-04-13T21:35:00.671Z,1.73
2023-04-13T21:37:31.285Z,2.00
2023-04-13T21:40:00.943Z,2.00
2023-04-13T21:42:28.553Z,1.43
2023-04-13T21:44:57.393Z,1.80
2023-04-13T21:47:25.231Z,1.47
2023-04-13T21:49:52.911Z,2.00
2023-04-13T21:52:20.432Z,2.10
2023-04-13T21:54:50.245Z,2.40
2023-04-13T21:57:18.949Z,2.53
2023-04-13T21:59:46.499Z,2.60
2023-04-13T22:02:14.054Z,2.80
2023-04-13T22:04:41.686Z,2.50
2023-04-13T22:07:09.151Z,3.07
2023-04-13T22:09:36.655Z,3.10
2023-04-13T22:12:04.435Z,3.70
2023-04-13T22:14:31.999Z,3.93
2023-04-13T22:16:59.707Z,3.67
2023-04-13T22:19:27.249Z,3.40
2023-04-13T22:21:54.776Z,3.20
2023-04-13T22:24:22.370Z,3.50
2023-04-13T22:26:49.850Z,3.80
2023-04-13T22:29:17.404Z,3.60
2023-04-13T22:31:44.954Z,4.30
2023-04-13T22:34:12.613Z,4.07
2023-04-13T22:36:40.263Z,4.37
2023-04-13T22:39:07.731Z,4.50
2023-04-13T22:41:35.190Z,4.30
2023-04-13T22:44:03.263Z,4.37
2023-04-13T22:46:31.061Z,5.00
2023-04-13T22:48:58.884Z,4.90
2023-04-13T22:51:28.202Z,3.70
2023-04-13T22:53:56.479Z,3.67
2023-04-13T22:56:23.944Z,3.80
2023-04-13T22:58:51.929Z,3.67
2023-04-13T23:01:19.592Z,3.90
2023-04-13T23:03:47.385Z,3.17
2023-04-13T23:06:15.084Z,4.07
2023-04-13T23:08:42.544Z,3.80
2023-04-13T23:11:10.977Z,4.33
2023-04-13T23:13:38.493Z,3.90
2023-04-13T23:16:06.992Z,4.10
2023-04-13T23:18:34.541Z,3.80
2023-04-13T23:21:11.005Z,3.87
2023-04-13T23:23:39.490Z,4.13
2023-04-13T23:26:07.221Z,4.60
2023-04-13T23:28:34.857Z,4.27
2023-04-13T23:31:09.038Z,4.67
2023-04-13T23:33:36.768Z,4.70
2023-04-13T23:36:04.928Z,4.67
2023-04-13T23:38:33.097Z,5.50
2023-04-13T23:41:00.947Z,4.60
2023-04-13T23:43:28.581Z,4.20
2023-04-13T23:45:57.075Z,4.20
2023-04-13T23:48:26.372Z,4.63
2023-04-13T23:50:54.410Z,4.30
2023-04-13T23:53:21.868Z,4.30
2023-04-13T23:55:49.462Z,4.30
2023-04-13T23:58:17.035Z,4.27
